createdAt,value
2023-03-21T00:01:54.313Z,101320.97
2023-03-21T00:04:22.966Z,101299.25
2023-03-21T00:06:49.706Z,101297.28
2023-03-21T00:09:16.540Z,101296.06
2023-03-21T00:11:43.315Z,101290.53
2023-03-21T00:14:14.451Z,101290.91
2023-03-21T00:16:41.612Z,101292.13
2023-03-21T00:19:09.737Z,101293.31
2023-03-21T00:21:59.242Z,101291.34
2023-03-21T00:24:25.460Z,101284.59
2023-03-21T00:26:52.063Z,101287.38
2023-03-21T00:29:18.998Z,101281.03
2023-03-21T00:31:45.538Z,101275.09
2023-03-21T00:36:39.645Z,101270.34
2023-03-21T00:39:06.366Z,101268.38
2023-03-21T00:41:45.930Z,101273.53
2023-03-21T00:44:15.957Z,101270.72
2023-03-21T00:46:54.186Z,101270.34
2023-03-21T00:49:27.719Z,101250.91
2023-03-21T00:51:57.146Z,101265.22
2023-03-21T00:54:23.739Z,101258.53
2023-03-21T00:56:50.218Z,101247.00
2023-03-21T00:59:17.303Z,101255.75
2023-03-21T01:01:46.537Z,101254.91
2023-03-21T01:04:16.637Z,101259.91
2023-03-21T01:06:44.566Z,101258.66
2023-03-21T01:09:26.137Z,101247.03
2023-03-21T01:11:53.644Z,101240.28
2023-03-21T01:14:23.702Z,101236.72
2023-03-21T01:16:52.855Z,101228.41
2023-03-21T01:19:30.950Z,101238.28
2023-03-21T01:22:04.437Z,101236.31
2023-03-21T01:24:31.264Z,101240.22
2023-03-21T01:26:58.779Z,101224.78
2023-03-21T01:29:25.226Z,101228.00
2023-03-21T01:31:51.698Z,101240.25
2023-03-21T01:34:18.218Z,101226.78
2023-03-21T01:36:45.022Z,101226.00
2023-03-21T01:39:11.575Z,101225.22
2023-03-21T01:41:43.493Z,101235.06
2023-03-21T01:44:20.056Z,101223.19
2023-03-21T01:47:11.602Z,101226.78
2023-03-21T01:49:48.528Z,101221.66
2023-03-21T01:52:35.334Z,101236.72
2023-03-21T01:55:06.925Z,101223.66
2023-03-21T01:57:54.937Z,101217.25
2023-03-21T02:00:29.566Z,101220.84
2023-03-21T02:03:06.164Z,101202.22
2023-03-21T02:05:59.120Z,101216.34
2023-03-21T02:08:38.374Z,101212.41
2023-03-21T02:11:07.029Z,101201.06
2023-03-21T02:13:33.493Z,101218.06
2023-03-21T02:16:17.128Z,101207.38
2023-03-21T02:19:02.273Z,101201.03
2023-03-21T02:22:05.696Z,101207.63
2023-03-21T02:24:48.759Z,101200.31
2023-03-21T02:27:23.837Z,101203.56
2023-03-21T02:30:20.213Z,101200.63
2023-03-21T02:33:02.019Z,101210.00
2023-03-21T02:35:31.703Z,101199.00
2023-03-21T02:38:01.831Z,101195.31
2023-03-21T02:40:43.270Z,101196.22
2023-03-21T02:43:23.398Z,101200.31
2023-03-21T02:46:08.558Z,101183.97
2023-03-21T02:48:50.274Z,101191.56
2023-03-21T02:51:21.100Z,101180.44
2023-03-21T02:54:13.039Z,101182.03
2023-03-21T02:56:41.379Z,101185.97
2023-03-21T02:59:08.801Z,101181.59
2023-03-21T03:01:35.543Z,101174.88
2023-03-21T03:04:02.122Z,101178.00
2023-03-21T03:06:42.032Z,101175.28
2023-03-21T03:09:48.167Z,101176.00
2023-03-21T03:12:34.249Z,101185.31
2023-03-21T03:15:28.364Z,101168.72
2023-03-21T03:18:27.701Z,101170.34
2023-03-21T03:21:27.856Z,101162.59
2023-03-21T03:24:23.583Z,101159.81
2023-03-21T03:26:59.191Z,101155.06
2023-03-21T03:29:28.622Z,101150.72
2023-03-21T03:32:03.715Z,101150.69
2023-03-21T03:34:34.771Z,101153.06
2023-03-21T03:37:05.335Z,101162.03
2023-03-21T03:39:43.691Z,101158.69
2023-03-21T03:42:27.900Z,101152.25
2023-03-21T03:44:56.156Z,101150.69
2023-03-21T03:47:59.414Z,101150.59
2023-03-21T03:50:38.250Z,101146.38
2023-03-21T03:53:20.178Z,101134.84
2023-03-21T03:55:49.191Z,101128.91
2023-03-21T03:58:23.826Z,101135.22
2023-03-21T04:00:52.441Z,101133.63
2023-03-21T04:03:19.026Z,101119.41
2023-03-21T04:05:48.141Z,101134.84
2023-03-21T04:08:15.463Z,101124.50
2023-03-21T04:10:42.916Z,101127.75
2023-03-21T04:13:09.688Z,101136.00
2023-03-21T04:15:36.327Z,101123.72
2023-03-21T04:18:03.354Z,101135.78
2023-03-21T04:20:36.490Z,101126.97
2023-03-21T04:23:05.000Z,101118.97
2023-03-21T04:25:35.033Z,101129.72
2023-03-21T04:28:02.492Z,101121.75
2023-03-21T04:30:29.281Z,101132.59
2023-03-21T04:33:01.039Z,101132.81
2023-03-21T04:35:28.461Z,101121.31
2023-03-21T04:37:55.854Z,101117.75
2023-03-21T04:40:22.420Z,101118.56
2023-03-21T04:42:49.084Z,101113.81
2023-03-21T04:45:16.689Z,101111.84
2023-03-21T04:47:43.253Z,101114.59
2023-03-21T04:50:11.045Z,101119.75
2023-03-21T04:52:37.523Z,101113.03
2023-03-21T04:55:04.441Z,101112.22
2023-03-21T04:57:31.045Z,101114.59
2023-03-21T04:59:57.463Z,101127.22
2023-03-21T05:02:23.972Z,101123.38
2023-03-21T05:04:50.608Z,101121.00
2023-03-21T05:07:17.164Z,101118.56
2023-03-21T05:09:43.622Z,101119.69
2023-03-21T05:12:10.051Z,101117.28
2023-03-21T05:14:36.545Z,101110.25
2023-03-21T05:17:05.212Z,101099.59
2023-03-21T05:19:35.889Z,101103.94
2023-03-21T05:22:08.602Z,101102.75
2023-03-21T05:24:37.393Z,101103.53
2023-03-21T05:27:03.874Z,101096.78
2023-03-21T05:29:32.691Z,101098.78
2023-03-21T05:32:00.958Z,101105.13
2023-03-21T05:34:28.315Z,101109.88
2023-03-21T05:36:55.233Z,101103.59
2023-03-21T05:39:21.886Z,101107.28
2023-03-21T05:41:48.409Z,101114.44
2023-03-21T05:44:14.862Z,101110.88
2023-03-21T05:46:41.460Z,101100.03
2023-03-21T05:49:07.905Z,101103.75
2023-03-21T05:51:34.439Z,101097.66
2023-03-21T05:54:00.880Z,101105.91
2023-03-21T05:56:27.362Z,101105.53
2023-03-21T05:58:53.944Z,101108.28
2023-03-21T06:01:20.476Z,101098.81
2023-03-21T06:03:47.024Z,101116.28
2023-03-21T06:06:13.525Z,101101.97
2023-03-21T06:08:40.150Z,101107.09
2023-03-21T06:11:19.397Z,101105.16
2023-03-21T06:13:45.909Z,101106.66
2023-03-21T06:16:12.790Z,101108.63
2023-03-21T06:18:39.370Z,101103.91
2023-03-21T06:21:06.083Z,101118.22
2023-03-21T06:23:32.686Z,101127.66
2023-03-21T06:25:59.168Z,101117.72
2023-03-21T06:28:25.740Z,101114.22
2023-03-21T06:30:52.431Z,101112.59
2023-03-21T06:33:18.941Z,101119.72
2023-03-21T06:35:51.274Z,101110.28
2023-03-21T06:38:17.823Z,101114.47
2023-03-21T06:40:46.949Z,101107.75
2023-03-21T06:43:14.169Z,101107.69
2023-03-21T06:45:40.960Z,101099.69
2023-03-21T06:48:09.274Z,101097.97
2023-03-21T06:50:36.142Z,101102.50
2023-03-21T06:53:02.831Z,101105.22
2023-03-21T06:55:29.381Z,101098.19
2023-03-21T06:57:57.540Z,101098.81
2023-03-21T07:00:24.632Z,101107.59
2023-03-21T07:02:51.824Z,101104.16
2023-03-21T07:05:18.489Z,101106.81
2023-03-21T07:07:45.035Z,101104.47
2023-03-21T07:10:11.794Z,101098.53
2023-03-21T07:12:38.283Z,101093.09
2023-03-21T07:15:07.206Z,101101.72
2023-03-21T07:17:34.184Z,101115.56
2023-03-21T07:20:00.653Z,101106.13
2023-03-21T07:22:27.193Z,101110.97
2023-03-21T07:25:04.398Z,101108.06
2023-03-21T07:27:31.975Z,101107.59
2023-03-21T07:29:58.526Z,101115.75
2023-03-21T07:32:29.859Z,101114.22
2023-03-21T07:34:56.632Z,101113.91
2023-03-21T07:37:24.007Z,101115.47
2023-03-21T07:39:51.457Z,101112.25
2023-03-21T07:42:18.740Z,101110.28
2023-03-21T07:44:45.256Z,101105.16
2023-03-21T07:47:11.735Z,101104.78
2023-03-21T07:49:38.243Z,101109.13
2023-03-21T07:52:06.754Z,101105.97
2023-03-21T07:54:33.498Z,101099.97
2023-03-21T07:57:00.058Z,101103.75
2023-03-21T07:59:26.696Z,101112.13
2023-03-21T08:01:53.164Z,101114.19
2023-03-21T08:04:19.906Z,101117.97
2023-03-21T08:06:46.390Z,101120.63
2023-03-21T08:09:12.941Z,101114.13
2023-03-21T08:11:40.635Z,101121.88
2023-03-21T08:14:07.135Z,101106.19
2023-03-21T08:16:33.748Z,101114.78
2023-03-21T08:19:00.292Z,101096.72
2023-03-21T08:21:27.521Z,101107.13
2023-03-21T08:23:54.292Z,101098.22
2023-03-21T08:26:21.339Z,101100.41
2023-03-21T08:28:47.965Z,101103.38
2023-03-21T08:31:15.056Z,101090.56
2023-03-21T08:33:41.580Z,101087.56
2023-03-21T08:36:08.725Z,101087.03
2023-03-21T08:38:35.890Z,101093.69
2023-03-21T08:41:02.939Z,101088.94
2023-03-21T08:43:29.539Z,101098.94
2023-03-21T08:45:56.474Z,101094.50
2023-03-21T08:48:23.549Z,101094.91
2023-03-21T08:50:50.316Z,101097.88
2023-03-21T08:53:16.849Z,101099.34
2023-03-21T08:55:44.392Z,101097.53
2023-03-21T08:58:11.310Z,101093.63
2023-03-21T09:00:38.123Z,101101.50
2023-03-21T09:03:05.070Z,101102.19
2023-03-21T09:05:31.924Z,101099.03
2023-03-21T09:07:58.503Z,101100.22
2023-03-21T09:10:25.027Z,101098.94
2023-03-21T09:12:53.290Z,101104.81
2023-03-21T09:15:21.588Z,101097.34
2023-03-21T09:17:52.439Z,101102.94
2023-03-21T09:20:31.214Z,101096.88
2023-03-21T09:22:59.137Z,101094.75
2023-03-21T09:25:30.995Z,101099.81
2023-03-21T09:27:58.157Z,101098.16
2023-03-21T09:30:26.498Z,101101.59
2023-03-21T09:32:55.541Z,101103.59
2023-03-21T09:35:22.652Z,101104.09
2023-03-21T09:37:49.941Z,101100.16
2023-03-21T09:40:58.176Z,101108.22
2023-03-21T09:44:03.643Z,101106.59
2023-03-21T09:46:55.076Z,101102.09
2023-03-21T09:49:31.346Z,101107.06
2023-03-21T09:52:05.569Z,101103.03
2023-03-21T09:54:43.899Z,101102.94
2023-03-21T09:57:36.452Z,101110.25
2023-03-21T10:00:14.400Z,101098.91
2023-03-21T10:02:47.179Z,101097.50
2023-03-21T10:05:26.068Z,101094.56
2023-03-21T10:08:07.109Z,101092.38
2023-03-21T10:10:48.066Z,101091.91
2023-03-21T10:13:23.725Z,101091.47
2023-03-21T10:15:50.370Z,101088.59
2023-03-21T10:18:24.822Z,101084.53
2023-03-21T10:20:52.171Z,101071.63
2023-03-21T10:23:22.657Z,101079.88
2023-03-21T10:25:54.925Z,101073.53
2023-03-21T10:28:27.158Z,101080.38
2023-03-21T10:31:02.264Z,101073.53
2023-03-21T10:33:38.718Z,101074.81
2023-03-21T10:36:11.561Z,101073.44
2023-03-21T10:38:43.529Z,101069.22
2023-03-21T10:41:11.527Z,101066.88
2023-03-21T10:43:40.945Z,101060.16
2023-03-21T10:46:19.050Z,101065.28
2023-03-21T10:48:52.423Z,101058.50
2023-03-21T10:51:27.683Z,101058.50
2023-03-21T10:53:57.804Z,101056.34
2023-03-21T10:56:29.335Z,101052.63
2023-03-21T10:59:01.418Z,101042.88
2023-03-21T11:01:41.266Z,101042.91
2023-03-21T11:04:09.502Z,101028.16
2023-03-21T11:06:40.822Z,101026.31
2023-03-21T11:09:13.187Z,101031.13
2023-03-21T11:12:11.001Z,101030.75
2023-03-21T11:14:43.249Z,101020.84
2023-03-21T11:17:22.212Z,101018.03
2023-03-21T11:19:49.901Z,101012.56
2023-03-21T11:22:18.390Z,101003.75
2023-03-21T11:24:51.382Z,100993.03
2023-03-21T11:27:18.478Z,100990.22
2023-03-21T11:29:51.200Z,100988.28
2023-03-21T11:32:22.470Z,100981.88
2023-03-21T11:35:11.115Z,100993.72
2023-03-21T11:37:37.524Z,100991.31
2023-03-21T11:40:13.504Z,100993.66
2023-03-21T11:42:48.266Z,100989.84
2023-03-21T11:45:36.005Z,100989.19
2023-03-21T11:48:13.032Z,100984.53
2023-03-21T11:50:47.370Z,100970.81
2023-03-21T11:53:29.176Z,100969.88
2023-03-21T11:56:19.107Z,100966.78
2023-03-21T11:58:51.494Z,100978.78
2023-03-21T12:01:49.506Z,100964.81
2023-03-21T12:04:44.485Z,100962.63
2023-03-21T12:07:16.987Z,100958.22
2023-03-21T12:09:48.591Z,100948.03
2023-03-21T12:12:50.414Z,100957.06
2023-03-21T12:15:22.780Z,100947.13
2023-03-21T12:17:52.311Z,100947.41
2023-03-21T12:20:48.327Z,100947.34
2023-03-21T12:23:39.672Z,100951.63
2023-03-21T12:26:18.474Z,100946.41
2023-03-21T12:29:27.156Z,100951.13
2023-03-21T12:32:21.510Z,100936.50
2023-03-21T12:35:08.345Z,100936.28
2023-03-21T12:37:52.025Z,100927.41
2023-03-21T12:40:39.510Z,100930.31
2023-03-21T12:43:12.049Z,100927.66
2023-03-21T12:45:47.342Z,100933.28
2023-03-21T12:48:32.975Z,100919.16
2023-03-21T12:51:02.330Z,100938.69
2023-03-21T12:53:42.896Z,100932.69
2023-03-21T12:56:16.885Z,100917.88
2023-03-21T12:58:52.338Z,100923.81
2023-03-21T13:01:22.046Z,100926.91
2023-03-21T13:04:08.111Z,100912.22
2023-03-21T13:06:36.591Z,100902.88
2023-03-21T13:09:13.000Z,100905.97
2023-03-21T13:11:40.069Z,100909.59
2023-03-21T13:14:08.927Z,100901.44
2023-03-21T13:16:41.393Z,100888.50
2023-03-21T13:19:16.599Z,100888.06
2023-03-21T13:22:16.148Z,100886.72
2023-03-21T13:24:49.667Z,100888.03
2023-03-21T13:27:36.957Z,100887.81
2023-03-21T13:30:07.328Z,100877.84
2023-03-21T13:32:44.318Z,100877.13
2023-03-21T13:35:15.946Z,100871.25
2023-03-21T13:37:51.608Z,100865.25
2023-03-21T13:40:22.317Z,100833.91
2023-03-21T13:42:59.544Z,100850.72
2023-03-21T13:45:44.866Z,100861.22
2023-03-21T13:48:31.188Z,100864.53
2023-03-21T13:51:05.676Z,100851.78
2023-03-21T13:53:45.670Z,100859.03
2023-03-21T13:56:12.076Z,100859.69
2023-03-21T13:58:50.226Z,100827.91
2023-03-21T14:01:26.913Z,100843.28
2023-03-21T14:03:59.528Z,100837.56
2023-03-21T14:06:36.197Z,100833.34
2023-03-21T14:09:04.185Z,100832.50
2023-03-21T14:11:33.507Z,100813.66
2023-03-21T14:14:02.321Z,100833.84
2023-03-21T14:16:29.854Z,100832.88
2023-03-21T14:19:03.846Z,100825.38
2023-03-21T14:21:33.053Z,100836.63
2023-03-21T14:24:04.396Z,100827.38
2023-03-21T14:26:34.381Z,100811.34
2023-03-21T14:29:05.529Z,100828.09
2023-03-21T14:31:34.076Z,100828.09
2023-03-21T14:34:02.559Z,100825.78
2023-03-21T14:36:32.882Z,100806.00
2023-03-21T14:39:12.444Z,100814.97
2023-03-21T14:41:51.575Z,100813.44
2023-03-21T14:44:27.959Z,100806.59
2023-03-21T14:47:17.611Z,100834.53
2023-03-21T14:49:44.329Z,100836.72
2023-03-21T14:52:20.499Z,100830.69
2023-03-21T14:54:48.188Z,100829.75
2023-03-21T14:57:20.725Z,100813.88
2023-03-21T14:59:52.115Z,100805.72
2023-03-21T15:02:23.639Z,100811.59
2023-03-21T15:04:53.434Z,100814.28
2023-03-21T15:07:37.984Z,100805.38
2023-03-21T15:10:17.260Z,100807.38
2023-03-21T15:12:55.390Z,100799.97
2023-03-21T15:15:26.071Z,100815.75
2023-03-21T15:17:56.871Z,100790.22
2023-03-21T15:20:27.757Z,100777.94
2023-03-21T15:23:03.567Z,100783.94
2023-03-21T15:25:34.688Z,100792.97
2023-03-21T15:28:02.035Z,100776.88
2023-03-21T15:30:31.223Z,100773.94
2023-03-21T15:33:05.376Z,100776.16
2023-03-21T15:35:41.880Z,100765.63
2023-03-21T15:38:22.665Z,100779.19
2023-03-21T15:40:49.225Z,100772.50
2023-03-21T15:43:16.784Z,100771.94
2023-03-21T15:45:54.870Z,100760.69
2023-03-21T15:48:26.392Z,100769.19
2023-03-21T15:51:04.992Z,100750.34
2023-03-21T15:53:33.688Z,100751.53
2023-03-21T15:56:04.534Z,100753.75
2023-03-21T15:58:43.955Z,100767.53
2023-03-21T16:01:18.091Z,100763.56
2023-03-21T16:03:47.941Z,100757.13
2023-03-21T16:06:25.693Z,100773.03
2023-03-21T16:09:03.425Z,100762.78
2023-03-21T16:11:39.920Z,100756.13
2023-03-21T16:14:07.076Z,100762.00
2023-03-21T16:16:33.720Z,100762.78
2023-03-21T16:19:01.399Z,100758.13
2023-03-21T16:21:30.663Z,100765.72
2023-03-21T16:23:58.159Z,100756.56
2023-03-21T16:26:27.587Z,100759.00
2023-03-21T16:28:54.930Z,100761.97
2023-03-21T16:31:23.782Z,100760.41
2023-03-21T16:33:51.465Z,100758.56
2023-03-21T16:36:19.525Z,100754.66
2023-03-21T16:38:47.658Z,100752.66
2023-03-21T16:41:15.189Z,100734.94
2023-03-21T16:43:45.460Z,100735.97
2023-03-21T16:46:24.222Z,100740.28
2023-03-21T16:48:53.591Z,100749.88
2023-03-21T16:51:29.274Z,100745.38
2023-03-21T16:53:57.262Z,100750.00
2023-03-21T16:56:26.969Z,100739.25
2023-03-21T16:58:54.477Z,100758.25
2023-03-21T17:01:25.987Z,100761.75
2023-03-21T17:03:53.591Z,100760.13
2023-03-21T17:06:24.287Z,100763.09
2023-03-21T17:08:51.840Z,100769.56
2023-03-21T17:11:20.754Z,100778.91
2023-03-21T17:13:52.480Z,100772.72
2023-03-21T17:16:23.829Z,100770.84
2023-03-21T17:18:51.679Z,100774.91
2023-03-21T17:21:23.711Z,100768.31
2023-03-21T17:23:52.367Z,100779.06
2023-03-21T17:26:22.240Z,100775.03
2023-03-21T17:28:53.639Z,100786.03
2023-03-21T17:31:23.831Z,100785.19
2023-03-21T17:33:51.189Z,100794.84
2023-03-21T17:36:28.053Z,100798.00
2023-03-21T17:38:55.418Z,100793.06
2023-03-21T17:41:22.725Z,100791.91
2023-03-21T17:43:50.956Z,100792.22
2023-03-21T17:46:21.055Z,100786.75
2023-03-21T17:48:48.127Z,100778.81
2023-03-21T17:51:16.403Z,100789.81
2023-03-21T17:53:44.387Z,100782.28
2023-03-21T17:56:16.344Z,100778.78
2023-03-21T17:58:42.963Z,100784.63
2023-03-21T18:01:09.777Z,100784.22
2023-03-21T18:03:36.325Z,100783.13
2023-03-21T18:06:03.877Z,100778.84
2023-03-21T18:08:30.354Z,100786.66
2023-03-21T18:10:56.851Z,100779.75
2023-03-21T18:13:23.837Z,100794.00
2023-03-21T18:15:50.662Z,100785.91
2023-03-21T18:18:17.268Z,100786.38
2023-03-21T18:20:53.935Z,100788.34
2023-03-21T18:23:21.218Z,100789.06
2023-03-21T18:25:47.858Z,100787.72
2023-03-21T18:28:19.451Z,100787.94
2023-03-21T18:33:36.976Z,100787.75
2023-03-21T18:36:07.535Z,100788.25
2023-03-21T18:38:35.470Z,100798.91
2023-03-21T18:41:02.003Z,100804.41
2023-03-21T18:46:15.874Z,100794.97
2023-03-21T18:48:42.778Z,100800.50
2023-03-21T18:51:12.393Z,100794.16
2023-03-21T18:53:39.265Z,100798.84
2023-03-21T18:56:09.836Z,100785.88
2023-03-21T18:58:37.284Z,100791.38
2023-03-21T19:01:04.993Z,100782.91
2023-03-21T19:03:36.757Z,100783.75
2023-03-21T19:06:06.389Z,100783.75
2023-03-21T19:08:36.984Z,100785.41
2023-03-21T19:11:06.791Z,100792.91
2023-03-21T19:13:34.470Z,100790.63
2023-03-21T19:16:02.569Z,100794.56
2023-03-21T19:18:50.341Z,100803.88
2023-03-21T19:21:21.504Z,100784.06
2023-03-21T19:24:23.002Z,100783.34
2023-03-21T19:26:34.602Z,100792.50
2023-03-21T19:29:01.282Z,100780.34
2023-03-21T19:31:27.863Z,100777.22
2023-03-21T19:33:54.546Z,100777.13
2023-03-21T19:36:22.948Z,100780.41
2023-03-21T19:38:50.416Z,100780.44
2023-03-21T19:41:17.515Z,100779.28
2023-03-21T19:43:53.552Z,100776.00
2023-03-21T19:46:24.460Z,100770.09
2023-03-21T19:48:51.627Z,100767.75
2023-03-21T19:51:28.317Z,100765.31
2023-03-21T19:53:56.269Z,100763.84
2023-03-21T19:56:26.477Z,100758.28
2023-03-21T19:58:54.665Z,100761.41
2023-03-21T20:01:21.861Z,100762.28
2023-03-21T20:03:48.489Z,100762.25
2023-03-21T20:06:15.014Z,100768.25
2023-03-21T20:11:28.170Z,100764.69
2023-03-21T20:13:54.721Z,100760.53
2023-03-21T20:16:21.466Z,100749.50
2023-03-21T20:18:48.093Z,100744.72
2023-03-21T20:21:17.917Z,100745.00
2023-03-21T20:23:50.808Z,100745.06
2023-03-21T20:26:17.692Z,100749.00
2023-03-21T20:28:56.633Z,100749.91
2023-03-21T20:31:32.699Z,100747.50
2023-03-21T20:33:59.577Z,100744.00
2023-03-21T20:36:40.063Z,100750.31
2023-03-21T20:39:07.587Z,100750.06
2023-03-21T20:41:34.153Z,100735.09
2023-03-21T20:46:49.764Z,100746.19
2023-03-21T20:49:16.436Z,100751.03
2023-03-21T20:54:30.084Z,100742.34
2023-03-21T20:56:57.200Z,100747.16
2023-03-21T20:59:27.683Z,100746.38
2023-03-21T21:01:58.010Z,100743.63
2023-03-21T21:04:48.080Z,100743.97
2023-03-21T21:07:20.370Z,100741.28
2023-03-21T21:09:47.820Z,100732.56
2023-03-21T21:12:16.349Z,100729.44
2023-03-21T21:14:43.721Z,100734.63
2023-03-21T21:17:28.326Z,100731.84
2023-03-21T21:19:57.343Z,100750.47
2023-03-21T21:22:23.896Z,100740.19
2023-03-21T21:24:50.430Z,100738.97
2023-03-21T21:27:16.993Z,100744.94
2023-03-21T21:29:43.670Z,100753.25
2023-03-21T21:32:11.368Z,100745.66
2023-03-21T21:34:38.224Z,100736.44
2023-03-21T21:37:05.185Z,100731.31
2023-03-21T21:39:37.777Z,100728.47
2023-03-21T21:42:05.095Z,100724.63
2023-03-21T21:44:31.742Z,100725.88
2023-03-21T21:46:58.276Z,100727.81
2023-03-21T21:49:25.076Z,100720.28
2023-03-21T21:51:51.627Z,100722.66
2023-03-21T21:54:18.643Z,100723.47
2023-03-21T21:56:48.486Z,100721.09
2023-03-21T21:59:22.024Z,100720.88
2023-03-21T22:01:51.317Z,100717.22
2023-03-21T22:04:18.935Z,100711.72
2023-03-21T22:06:47.509Z,100714.84
2023-03-21T22:09:15.679Z,100709.84
2023-03-21T22:11:42.275Z,100719.78
2023-03-21T22:14:08.796Z,100720.19
2023-03-21T22:16:35.324Z,100713.84
2023-03-21T22:19:01.836Z,100718.25
2023-03-21T22:21:28.397Z,100716.94
2023-03-21T22:23:54.856Z,100711.38
2023-03-21T22:26:21.470Z,100711.25
2023-03-21T22:28:47.997Z,100711.44
2023-03-21T22:31:16.059Z,100713.84
2023-03-21T22:33:45.552Z,100713.97
2023-03-21T22:36:12.198Z,100710.16
2023-03-21T22:38:38.837Z,100712.94
2023-03-21T22:41:06.602Z,100714.38
2023-03-21T22:43:34.236Z,100708.09
2023-03-21T22:46:03.251Z,100710.50
2023-03-21T22:48:30.877Z,100710.78
2023-03-21T22:50:58.953Z,100715.78
2023-03-21T22:53:25.929Z,100711.31
2023-03-21T22:55:52.407Z,100713.75
2023-03-21T22:58:19.143Z,100712.38
2023-03-21T23:00:46.040Z,100710.50
2023-03-21T23:03:14.522Z,100704.31
2023-03-21T23:05:42.073Z,100711.41
2023-03-21T23:08:09.236Z,100710.25
2023-03-21T23:10:40.923Z,100706.63
2023-03-21T23:13:07.698Z,100707.38
2023-03-21T23:15:34.375Z,100709.56
2023-03-21T23:18:01.060Z,100714.59
2023-03-21T23:20:27.781Z,100711.59
2023-03-21T23:22:54.255Z,100708.13
2023-03-21T23:25:21.035Z,100701.28
2023-03-21T23:27:47.821Z,100700.91
2023-03-21T23:30:14.555Z,100701.53
2023-03-21T23:32:41.393Z,100696.31
2023-03-21T23:35:08.766Z,100691.81
2023-03-21T23:37:35.264Z,100690.13
2023-03-21T23:40:02.227Z,100691.47
2023-03-21T23:42:30.104Z,100688.28
2023-03-21T23:44:57.240Z,100688.63
2023-03-21T23:47:23.858Z,100692.00
2023-03-21T23:49:52.798Z,100690.34
2023-03-21T23:52:19.351Z,100679.63
2023-03-21T23:54:45.832Z,100682.47
2023-03-21T23:57:12.350Z,100678.06
2023-03-21T23:59:38.809Z,100679.31
